sensor_id;sensor_type;location;lat;lon;timestamp;P1;P2;P0
72854;PMS7003;60991;51.278;22.550;2022-12-07T00:00:43;34.75;25.75;17.75
72854;PMS7003;60991;51.278;22.550;2022-12-07T00:02:13;38.00;25.00;17.00
72854;PMS7003;60991;51.278;22.550;2022-12-07T00:03:44;36.00;29.50;19.75
72854;PMS7003;60991;51.278;22.550;2022-12-07T00:05:16;43.50;27.75;18.50
72854;PMS7003;60991;51.278;22.550;2022-12-07T00:06:47;35.00;31.00;17.00
72854;PMS7003;60991;51.278;22.550;2022-12-07T00:08:21;37.50;30.25;14.75
72854;PMS7003;60991;51.278;22.550;2022-12-07T00:09:51;30.25;27.00;17.75
72854;PMS7003;60991;51.278;22.550;2022-12-07T00:11:24;34.25;26.75;16.75
72854;PMS7003;60991;51.278;22.550;2022-12-07T00:12:55;31.00;27.75;18.00
72854;PMS7003;60991;51.278;22.550;2022-12-07T00:14:25;42.50;26.25;18.00
72854;PMS7003;60991;51.278;22.550;2022-12-07T00:15:55;24.67;22.67;14.00
72854;PMS7003;60991;51.278;22.550;2022-12-07T00:17:25;31.75;25.75;18.75
72854;PMS7003;60991;51.278;22.550;2022-12-07T00:18:56;35.00;25.33;18.00
72854;PMS7003;60991;51.278;22.550;2022-12-07T00:20:27;43.00;30.75;21.25
72854;PMS7003;60991;51.278;22.550;2022-12-07T00:21:57;33.33;24.67;19.33
72854;PMS7003;60991;51.278;22.550;2022-12-07T00:23:29;18.67;16.33;9.00
72854;PMS7003;60991;51.278;22.550;2022-12-07T00:25:00;35.25;28.75;17.50
72854;PMS7003;60991;51.278;22.550;2022-12-07T00:26:31;35.33;32.00;19.67
72854;PMS7003;60991;51.278;22.550;2022-12-07T00:28:03;29.00;23.25;17.00
72854;PMS7003;60991;51.278;22.550;2022-12-07T00:29:33;30.25;27.50;17.25
72854;PMS7003;60991;51.278;22.550;2022-12-07T00:31:05;36.33;32.00;18.00
72854;PMS7003;60991;51.278;22.550;2022-12-07T00:32:42;36.75;26.25;18.50
72854;PMS7003;60991;51.278;22.550;2022-12-07T00:34:14;37.75;23.50;14.50
72854;PMS7003;60991;51.278;22.550;2022-12-07T00:35:54;30.75;29.00;18.00
72854;PMS7003;60991;51.278;22.550;2022-12-07T00:37:25;36.75;35.00;20.50
72854;PMS7003;60991;51.278;22.550;2022-12-07T00:38:57;26.75;25.75;18.00
72854;PMS7003;60991;51.278;22.550;2022-12-07T00:40:28;37.50;29.25;17.50
72854;PMS7003;60991;51.278;22.550;2022-12-07T00:41:58;32.50;28.75;18.00
72854;PMS7003;60991;51.278;22.550;2022-12-07T00:43:29;36.25;27.00;17.25
72854;PMS7003;60991;51.278;22.550;2022-12-07T00:44:59;33.25;27.00;19.00
72854;PMS7003;60991;51.278;22.550;2022-12-07T00:46:30;36.25;26.00;17.25
72854;PMS7003;60991;51.278;22.550;2022-12-07T00:48:00;33.25;29.75;16.00
72854;PMS7003;60991;51.278;22.550;2022-12-07T00:49:30;32.00;31.25;21.25
72854;PMS7003;60991;51.278;22.550;2022-12-07T00:51:01;37.00;21.75;15.00
72854;PMS7003;60991;51.278;22.550;2022-12-07T00:52:32;39.00;29.75;19.25
72854;PMS7003;60991;51.278;22.550;2022-12-07T00:54:02;35.00;27.33;18.00
72854;PMS7003;60991;51.278;22.550;2022-12-07T00:55:33;28.25;24.00;18.25
72854;PMS7003;60991;51.278;22.550;2022-12-07T00:57:03;30.75;25.75;18.00
72854;PMS7003;60991;51.278;22.550;2022-12-07T00:58:34;39.50;32.00;19.00
72854;PMS7003;60991;51.278;22.550;2022-12-07T01:00:04;32.00;26.00;17.00
72854;PMS7003;60991;51.278;22.550;2022-12-07T01:01:38;28.50;25.25;18.25
72854;PMS7003;60991;51.278;22.550;2022-12-07T01:03:09;26.75;21.75;14.25
72854;PMS7003;60991;51.278;22.550;2022-12-07T01:04:41;31.50;27.75;18.25
72854;PMS7003;60991;51.278;22.550;2022-12-07T01:06:15;35.33;29.00;17.33
72854;PMS7003;60991;51.278;22.550;2022-12-07T01:07:47;39.25;27.75;18.75
72854;PMS7003;60991;51.278;22.550;2022-12-07T01:09:17;37.25;32.50;19.00
72854;PMS7003;60991;51.278;22.550;2022-12-07T01:10:48;29.25;23.00;14.25
72854;PMS7003;60991;51.278;22.550;2022-12-07T01:12:19;33.50;25.50;16.00
72854;PMS7003;60991;51.278;22.550;2022-12-07T01:13:50;27.25;24.25;18.00
72854;PMS7003;60991;51.278;22.550;2022-12-07T01:15:22;30.50;27.50;16.25
72854;PMS7003;60991;51.278;22.550;2022-12-07T01:16:52;31.00;26.00;15.50
72854;PMS7003;60991;51.278;22.550;2022-12-07T01:18:29;30.50;30.50;17.75
72854;PMS7003;60991;51.278;22.550;2022-12-07T01:20:04;36.75;30.50;18.25
72854;PMS7003;60991;51.278;22.550;2022-12-07T01:21:35;27.50;25.00;15.50
72854;PMS7003;60991;51.278;22.550;2022-12-07T01:23:05;24.25;22.75;18.50
72854;PMS7003;60991;51.278;22.550;2022-12-07T01:24:36;38.75;28.75;18.75
72854;PMS7003;60991;51.278;22.550;2022-12-07T01:26:07;23.25;22.50;16.50
72854;PMS7003;60991;51.278;22.550;2022-12-07T01:27:41;31.50;24.00;15.75
72854;PMS7003;60991;51.278;22.550;2022-12-07T01:29:11;39.25;26.25;17.25
72854;PMS7003;60991;51.278;22.550;2022-12-07T01:30:41;28.25;25.50;17.25
72854;PMS7003;60991;51.278;22.550;2022-12-07T01:32:12;35.33;30.33;17.67
72854;PMS7003;60991;51.278;22.550;2022-12-07T01:33:43;25.75;24.75;18.00
72854;PMS7003;60991;51.278;22.550;2022-12-07T01:35:18;28.75;27.00;17.25
72854;PMS7003;60991;51.278;22.550;2022-12-07T01:36:48;32.25;22.75;16.25
72854;PMS7003;60991;51.278;22.550;2022-12-07T01:38:18;31.00;22.50;15.00
72854;PMS7003;60991;51.278;22.550;2022-12-07T01:39:49;33.00;24.67;15.00
72854;PMS7003;60991;51.278;22.550;2022-12-07T01:41:20;38.00;26.50;19.00
72854;PMS7003;60991;51.278;22.550;2022-12-07T01:42:51;33.25;32.00;18.00
72854;PMS7003;60991;51.278;22.550;2022-12-07T01:44:25;30.00;26.33;18.33
72854;PMS7003;60991;51.278;22.550;2022-12-07T01:46:00;30.25;26.50;18.00
72854;PMS7003;60991;51.278;22.550;2022-12-07T01:47:31;25.25;20.25;10.00
72854;PMS7003;60991;51.278;22.550;2022-12-07T01:49:01;34.50;26.00;16.50
72854;PMS7003;60991;51.278;22.550;2022-12-07T01:50:35;36.75;30.25;18.75
72854;PMS7003;60991;51.278;22.550;2022-12-07T01:52:21;25.75;23.25;17.00
72854;PMS7003;60991;51.278;22.550;2022-12-07T01:54:00;28.75;25.50;18.50
72854;PMS7003;60991;51.278;22.550;2022-12-07T01:55:31;32.75;26.25;17.00
72854;PMS7003;60991;51.278;22.550;2022-12-07T01:57:03;29.50;28.25;17.75
72854;PMS7003;60991;51.278;22.550;2022-12-07T01:58:36;25.50;23.00;16.50
72854;PMS7003;60991;51.278;22.550;2022-12-07T02:00:08;28.00;24.25;18.75
72854;PMS7003;60991;51.278;22.550;2022-12-07T02:01:39;33.00;26.00;16.25
72854;PMS7003;60991;51.278;22.550;2022-12-07T02:04:54;28.00;24.00;16.50
72854;PMS7003;60991;51.278;22.550;2022-12-07T02:06:27;23.00;19.75;15.25
72854;PMS7003;60991;51.278;22.550;2022-12-07T02:07:57;23.25;20.00;11.25
72854;PMS7003;60991;51.278;22.550;2022-12-07T02:09:28;24.50;22.50;15.50
72854;PMS7003;60991;51.278;22.550;2022-12-07T02:11:00;33.00;27.75;17.50
72854;PMS7003;60991;51.278;22.550;2022-12-07T02:12:31;18.50;14.25;11.25
72854;PMS7003;60991;51.278;22.550;2022-12-07T02:14:01;21.25;17.75;14.00
72854;PMS7003;60991;51.278;22.550;2022-12-07T02:15:34;25.50;16.75;12.00
72854;PMS7003;60991;51.278;22.550;2022-12-07T02:17:36;22.00;17.00;11.75
72854;PMS7003;60991;51.278;22.550;2022-12-07T02:30:48;14.00;9.25;9.25
72854;PMS7003;60991;51.278;22.550;2022-12-07T02:32:26;18.25;14.25;10.25
72854;PMS7003;60991;51.278;22.550;2022-12-07T02:34:07;13.50;10.50;8.00
72854;PMS7003;60991;51.278;22.550;2022-12-07T02:35:55;16.00;14.00;10.75
72854;PMS7003;60991;51.278;22.550;2022-12-07T02:37:41;16.25;10.50;9.00
72854;PMS7003;60991;51.278;22.550;2022-12-07T02:39:53;14.50;11.25;9.50
72854;PMS7003;60991;51.278;22.550;2022-12-07T02:41:29;12.00;11.25;8.25
72854;PMS7003;60991;51.278;22.550;2022-12-07T02:43:24;11.25;9.75;8.50
72854;PMS7003;60991;51.278;22.550;2022-12-07T02:44:57;11.25;10.00;8.00
72854;PMS7003;60991;51.278;22.550;2022-12-07T02:46:40;14.75;11.75;9.00
72854;PMS7003;60991;51.278;22.550;2022-12-07T02:48:13;13.25;9.50;8.00
72854;PMS7003;60991;51.278;22.550;2022-12-07T02:49:46;16.50;13.00;9.00
72854;PMS7003;60991;51.278;22.550;2022-12-07T02:51:19;9.50;9.50;8.00
72854;PMS7003;60991;51.278;22.550;2022-12-07T02:52:49;13.25;12.00;10.00
72854;PMS7003;60991;51.278;22.550;2022-12-07T02:54:20;13.50;12.00;9.00
72854;PMS7003;60991;51.278;22.550;2022-12-07T02:55:51;13.75;11.50;9.00
72854;PMS7003;60991;51.278;22.550;2022-12-07T03:03:17;12.50;10.50;9.25
72854;PMS7003;60991;51.278;22.550;2022-12-07T03:04:59;12.00;11.00;8.00
72854;PMS7003;60991;51.278;22.550;2022-12-07T03:06:38;11.50;11.50;8.25
72854;PMS7003;60991;51.278;22.550;2022-12-07T03:08:26;8.75;8.75;7.75
72854;PMS7003;60991;51.278;22.550;2022-12-07T03:10:14;9.00;7.25;4.75
72854;PMS7003;60991;51.278;22.550;2022-12-07T03:11:56;9.00;6.00;4.50
72854;PMS7003;60991;51.278;22.550;2022-12-07T03:15:05;7.00;4.67;4.67
72854;PMS7003;60991;51.278;22.550;2022-12-07T03:16:43;5.00;5.00;4.25
72854;PMS7003;60991;51.278;22.550;2022-12-07T03:18:24;5.50;3.50;3.50
72854;PMS7003;60991;51.278;22.550;2022-12-07T03:19:58;4.50;3.00;2.00
72854;PMS7003;60991;51.278;22.550;2022-12-07T03:21:37;4.75;4.75;3.00
72854;PMS7003;60991;51.278;22.550;2022-12-07T03:23:10;8.50;4.50;4.00
72854;PMS7003;60991;51.278;22.550;2022-12-07T03:24:46;4.00;2.00;2.00
72854;PMS7003;60991;51.278;22.550;2022-12-07T03:26:21;6.00;4.50;4.00
72854;PMS7003;60991;51.278;22.550;2022-12-07T03:27:59;4.00;3.50;2.00
72854;PMS7003;60991;51.278;22.550;2022-12-07T03:29:36;4.00;4.00;2.00
72854;PMS7003;60991;51.278;22.550;2022-12-07T03:31:16;4.75;3.50;2.00
72854;PMS7003;60991;51.278;22.550;2022-12-07T03:32:59;4.25;4.00;4.00
72854;PMS7003;60991;51.278;22.550;2022-12-07T03:35:01;1.50;1.50;1.00
72854;PMS7003;60991;51.278;22.550;2022-12-07T03:36:32;3.50;2.50;2.50
72854;PMS7003;60991;51.278;22.550;2022-12-07T03:39:59;2.50;2.50;2.00
72854;PMS7003;60991;51.278;22.550;2022-12-07T03:41:43;3.50;2.00;2.00
72854;PMS7003;60991;51.278;22.550;2022-12-07T03:43:15;6.00;4.50;4.00
72854;PMS7003;60991;51.278;22.550;2022-12-07T03:44:47;4.00;4.00;3.50
72854;PMS7003;60991;51.278;22.550;2022-12-07T03:50:15;2.00;2.00;2.00
72854;PMS7003;60991;51.278;22.550;2022-12-07T03:53:48;2.50;2.50;1.25
72854;PMS7003;60991;51.278;22.550;2022-12-07T03:55:29;7.00;4.25;4.00
72854;PMS7003;60991;51.278;22.550;2022-12-07T03:57:02;4.75;2.50;2.00
72854;PMS7003;60991;51.278;22.550;2022-12-07T03:58:35;5.25;2.50;2.00
72854;PMS7003;60991;51.278;22.550;2022-12-07T04:00:07;6.50;4.00;2.00
72854;PMS7003;60991;51.278;22.550;2022-12-07T04:01:38;5.00;5.00;4.00
72854;PMS7003;60991;51.278;22.550;2022-12-07T04:03:20;4.00;1.75;1.75
72854;PMS7003;60991;51.278;22.550;2022-12-07T04:04:50;1.50;1.50;1.25
72854;PMS7003;60991;51.278;22.550;2022-12-07T04:06:20;3.00;3.00;3.00
72854;PMS7003;60991;51.278;22.550;2022-12-07T04:07:51;8.00;4.25;4.00
72854;PMS7003;60991;51.278;22.550;2022-12-07T04:09:24;4.50;4.50;4.00
72854;PMS7003;60991;51.278;22.550;2022-12-07T04:10:54;5.00;2.00;2.00
72854;PMS7003;60991;51.278;22.550;2022-12-07T04:12:25;4.75;2.00;2.00
72854;PMS7003;60991;51.278;22.550;2022-12-07T04:13:55;3.50;1.00;1.00
72854;PMS7003;60991;51.278;22.550;2022-12-07T04:15:25;5.00;5.00;4.00
72854;PMS7003;60991;51.278;22.550;2022-12-07T04:16:56;3.50;3.50;2.00
72854;PMS7003;60991;51.278;22.550;2022-12-07T04:18:28;2.50;2.50;1.25
72854;PMS7003;60991;51.278;22.550;2022-12-07T04:19:58;5.00;5.00;4.00
72854;PMS7003;60991;51.278;22.550;2022-12-07T04:21:28;4.00;4.00;3.50
72854;PMS7003;60991;51.278;22.550;2022-12-07T04:22:59;0.00;0.00;0.00
72854;PMS7003;60991;51.278;22.550;2022-12-07T04:24:29;4.00;4.00;4.00
72854;PMS7003;60991;51.278;22.550;2022-12-07T04:26:00;7.75;4.25;3.50
72854;PMS7003;60991;51.278;22.550;2022-12-07T04:27:33;6.00;4.00;4.00
72854;PMS7003;60991;51.278;22.550;2022-12-07T04:29:03;11.50;5.00;4.00
72854;PMS7003;60991;51.278;22.550;2022-12-07T04:30:33;9.33;4.67;4.00
72854;PMS7003;60991;51.278;22.550;2022-12-07T04:32:04;8.00;3.50;3.50
72854;PMS7003;60991;51.278;22.550;2022-12-07T04:33:35;5.75;5.50;4.25
72854;PMS7003;60991;51.278;22.550;2022-12-07T04:35:05;4.75;4.00;4.00
72854;PMS7003;60991;51.278;22.550;2022-12-07T04:36:36;6.50;5.50;4.50
72854;PMS7003;60991;51.278;22.550;2022-12-07T04:38:06;4.00;4.00;2.00
72854;PMS7003;60991;51.278;22.550;2022-12-07T04:39:36;11.00;7.00;5.50
72854;PMS7003;60991;51.278;22.550;2022-12-07T04:41:07;5.00;2.50;2.00
72854;PMS7003;60991;51.278;22.550;2022-12-07T04:42:38;7.25;4.25;3.50
72854;PMS7003;60991;51.278;22.550;2022-12-07T04:44:08;7.25;4.25;3.50
72854;PMS7003;60991;51.278;22.550;2022-12-07T04:45:47;9.50;6.00;5.00
72854;PMS7003;60991;51.278;22.550;2022-12-07T04:47:18;4.75;3.50;3.00
72854;PMS7003;60991;51.278;22.550;2022-12-07T04:48:48;7.33;5.00;4.00
72854;PMS7003;60991;51.278;22.550;2022-12-07T04:50:19;9.75;5.00;4.75
72854;PMS7003;60991;51.278;22.550;2022-12-07T04:51:49;10.00;8.00;7.00
72854;PMS7003;60991;51.278;22.550;2022-12-07T04:53:22;6.00;4.00;3.00
72854;PMS7003;60991;51.278;22.550;2022-12-07T04:54:52;9.50;5.50;4.75
72854;PMS7003;60991;51.278;22.550;2022-12-07T04:56:23;6.50;5.75;4.00
72854;PMS7003;60991;51.278;22.550;2022-12-07T04:57:54;10.50;7.25;6.50
72854;PMS7003;60991;51.278;22.550;2022-12-07T04:59:24;7.75;7.00;5.00
72854;PMS7003;60991;51.278;22.550;2022-12-07T05:00:54;4.75;4.00;4.00
72854;PMS7003;60991;51.278;22.550;2022-12-07T05:02:25;7.50;5.50;4.25
72854;PMS7003;60991;51.278;22.550;2022-12-07T05:03:55;10.50;4.75;4.50
72854;PMS7003;60991;51.278;22.550;2022-12-07T05:05:25;9.00;7.50;7.25
72854;PMS7003;60991;51.278;22.550;2022-12-07T05:06:56;7.33;7.33;5.00
72854;PMS7003;60991;51.278;22.550;2022-12-07T05:08:26;7.00;7.00;5.00
72854;PMS7003;60991;51.278;22.550;2022-12-07T05:09:56;6.50;6.50;4.00
72854;PMS7003;60991;51.278;22.550;2022-12-07T05:11:26;3.33;1.67;1.00
72854;PMS7003;60991;51.278;22.550;2022-12-07T05:12:57;6.50;5.25;3.25
72854;PMS7003;60991;51.278;22.550;2022-12-07T05:14:27;4.00;4.00;2.67
72854;PMS7003;60991;51.278;22.550;2022-12-07T05:15:57;5.50;5.50;5.00
72854;PMS7003;60991;51.278;22.550;2022-12-07T05:17:28;7.75;4.25;4.00
72854;PMS7003;60991;51.278;22.550;2022-12-07T05:18:58;8.25;5.00;4.25
72854;PMS7003;60991;51.278;22.550;2022-12-07T05:20:28;8.00;8.00;7.00
72854;PMS7003;60991;51.278;22.550;2022-12-07T05:22:01;4.25;4.00;4.00
72854;PMS7003;60991;51.278;22.550;2022-12-07T05:23:31;9.00;7.00;5.50
72854;PMS7003;60991;51.278;22.550;2022-12-07T05:25:01;6.33;6.33;4.33
72854;PMS7003;60991;51.278;22.550;2022-12-07T05:26:31;9.50;7.75;4.75
72854;PMS7003;60991;51.278;22.550;2022-12-07T05:28:02;11.00;6.00;5.00
72854;PMS7003;60991;51.278;22.550;2022-12-07T05:29:33;4.50;4.50;4.00
72854;PMS7003;60991;51.278;22.550;2022-12-07T05:31:03;8.00;7.00;5.00
72854;PMS7003;60991;51.278;22.550;2022-12-07T05:32:34;6.50;6.50;5.50
72854;PMS7003;60991;51.278;22.550;2022-12-07T05:34:04;7.50;7.50;5.00
72854;PMS7003;60991;51.278;22.550;2022-12-07T05:35:34;9.00;7.00;6.33
72854;PMS7003;60991;51.278;22.550;2022-12-07T05:37:04;3.50;2.00;1.00
72854;PMS7003;60991;51.278;22.550;2022-12-07T05:38:35;7.33;5.00;4.33
72854;PMS7003;60991;51.278;22.550;2022-12-07T05:40:08;8.00;6.33;5.00
72854;PMS7003;60991;51.278;22.550;2022-12-07T05:41:39;7.00;7.00;5.00
72854;PMS7003;60991;51.278;22.550;2022-12-07T05:43:09;7.00;5.67;5.00
72854;PMS7003;60991;51.278;22.550;2022-12-07T05:44:41;7.75;7.75;7.00
72854;PMS7003;60991;51.278;22.550;2022-12-07T05:46:13;8.00;7.50;5.00
72854;PMS7003;60991;51.278;22.550;2022-12-07T05:47:43;7.00;5.67;5.00
72854;PMS7003;60991;51.278;22.550;2022-12-07T05:49:13;4.50;4.25;4.00
72854;PMS7003;60991;51.278;22.550;2022-12-07T05:50:47;7.00;5.00;4.75
72854;PMS7003;60991;51.278;22.550;2022-12-07T05:52:18;4.75;4.75;4.50
72854;PMS7003;60991;51.278;22.550;2022-12-07T05:53:48;5.00;4.00;3.00
72854;PMS7003;60991;51.278;22.550;2022-12-07T05:55:21;10.75;7.75;5.00
72854;PMS7003;60991;51.278;22.550;2022-12-07T05:56:51;11.75;8.00;5.00
72854;PMS7003;60991;51.278;22.550;2022-12-07T05:58:21;6.00;6.00;4.00
72854;PMS7003;60991;51.278;22.550;2022-12-07T05:59:52;4.33;4.33;4.33
72854;PMS7003;60991;51.278;22.550;2022-12-07T06:01:28;5.00;4.50;4.25
72854;PMS7003;60991;51.278;22.550;2022-12-07T06:02:58;5.00;5.00;5.00
72854;PMS7003;60991;51.278;22.550;2022-12-07T06:04:32;6.00;6.00;5.00
72854;PMS7003;60991;51.278;22.550;2022-12-07T06:06:05;7.50;7.50;7.00
72854;PMS7003;60991;51.278;22.550;2022-12-07T06:07:35;13.00;9.25;5.00
72854;PMS7003;60991;51.278;22.550;2022-12-07T06:09:05;4.33;4.33;4.00
72854;PMS7003;60991;51.278;22.550;2022-12-07T06:10:39;6.00;4.67;4.00
72854;PMS7003;60991;51.278;22.550;2022-12-07T06:12:12;5.00;5.00;4.75
72854;PMS7003;60991;51.278;22.550;2022-12-07T06:13:43;7.75;5.50;5.00
72854;PMS7003;60991;51.278;22.550;2022-12-07T06:15:13;9.33;8.00;7.00
72854;PMS7003;60991;51.278;22.550;2022-12-07T06:16:46;14.00;7.00;5.00
72854;PMS7003;60991;51.278;22.550;2022-12-07T06:18:17;6.50;6.50;5.00
72854;PMS7003;60991;51.278;22.550;2022-12-07T06:19:47;10.75;8.00;5.50
72854;PMS7003;60991;51.278;22.550;2022-12-07T06:21:20;10.50;7.00;5.00
72854;PMS7003;60991;51.278;22.550;2022-12-07T06:22:50;7.75;5.50;5.00
72854;PMS7003;60991;51.278;22.550;2022-12-07T06:24:20;9.67;8.00;6.33
72854;PMS7003;60991;51.278;22.550;2022-12-07T06:25:51;10.50;9.25;7.00
72854;PMS7003;60991;51.278;22.550;2022-12-07T06:27:21;8.00;7.75;6.00
72854;PMS7003;60991;51.278;22.550;2022-12-07T06:28:51;7.00;7.00;5.00
72854;PMS7003;60991;51.278;22.550;2022-12-07T06:30:21;12.33;7.33;6.33
72854;PMS7003;60991;51.278;22.550;2022-12-07T06:31:52;11.33;10.33;7.67
72854;PMS7003;60991;51.278;22.550;2022-12-07T06:33:22;11.00;8.00;5.00
72854;PMS7003;60991;51.278;22.550;2022-12-07T06:34:52;8.00;8.00;6.00
72854;PMS7003;60991;51.278;22.550;2022-12-07T06:36:23;7.75;5.00;4.75
72854;PMS7003;60991;51.278;22.550;2022-12-07T06:37:53;4.00;4.00;4.00
72854;PMS7003;60991;51.278;22.550;2022-12-07T06:39:24;7.50;6.50;4.75
72854;PMS7003;60991;51.278;22.550;2022-12-07T06:40:56;10.50;5.25;4.00
72854;PMS7003;60991;51.278;22.550;2022-12-07T06:42:26;11.75;4.75;4.75
72854;PMS7003;60991;51.278;22.550;2022-12-07T06:43:57;5.00;4.75;3.50
72854;PMS7003;60991;51.278;22.550;2022-12-07T06:45:29;6.75;6.00;4.50
72854;PMS7003;60991;51.278;22.550;2022-12-07T06:47:00;5.00;5.00;4.75
72854;PMS7003;60991;51.278;22.550;2022-12-07T06:48:30;7.00;5.50;4.00
72854;PMS7003;60991;51.278;22.550;2022-12-07T06:50:00;12.33;5.00;4.00
72854;PMS7003;60991;51.278;22.550;2022-12-07T06:51:31;8.00;7.00;5.00
72854;PMS7003;60991;51.278;22.550;2022-12-07T06:53:03;6.50;6.50;5.00
72854;PMS7003;60991;51.278;22.550;2022-12-07T06:54:37;11.00;7.00;5.00
72854;PMS7003;60991;51.278;22.550;2022-12-07T06:56:07;4.25;4.00;2.00
72854;PMS7003;60991;51.278;22.550;2022-12-07T06:57:38;6.33;6.33;5.00
72854;PMS7003;60991;51.278;22.550;2022-12-07T06:59:10;7.00;5.00;5.00
72854;PMS7003;60991;51.278;22.550;2022-12-07T07:00:41;4.00;4.00;4.00
72854;PMS7003;60991;51.278;22.550;2022-12-07T07:02:11;5.67;5.00;2.67
72854;PMS7003;60991;51.278;22.550;2022-12-07T07:03:41;4.00;2.00;2.00
72854;PMS7003;60991;51.278;22.550;2022-12-07T07:05:12;7.00;7.00;5.00
72854;PMS7003;60991;51.278;22.550;2022-12-07T07:06:42;5.00;5.00;4.75
72854;PMS7003;60991;51.278;22.550;2022-12-07T07:08:12;7.33;4.33;4.33
72854;PMS7003;60991;51.278;22.550;2022-12-07T07:09:43;7.25;7.00;5.00
72854;PMS7003;60991;51.278;22.550;2022-12-07T07:11:13;3.33;1.67;1.67
72854;PMS7003;60991;51.278;22.550;2022-12-07T07:12:43;7.25;7.00;4.75
72854;PMS7003;60991;51.278;22.550;2022-12-07T07:14:14;8.00;5.00;4.00
72854;PMS7003;60991;51.278;22.550;2022-12-07T07:15:44;8.00;8.00;5.00
72854;PMS7003;60991;51.278;22.550;2022-12-07T07:17:14;8.00;5.00;4.00
72854;PMS7003;60991;51.278;22.550;2022-12-07T07:18:45;7.25;7.00;4.75
72854;PMS7003;60991;51.278;22.550;2022-12-07T07:20:15;4.75;4.75;4.00
72854;PMS7003;60991;51.278;22.550;2022-12-07T07:21:46;7.00;7.00;5.00
72854;PMS7003;60991;51.278;22.550;2022-12-07T07:26:36;12.00;8.25;4.50
72854;PMS7003;60991;51.278;22.550;2022-12-07T07:28:07;5.25;5.25;4.00
72854;PMS7003;60991;51.278;22.550;2022-12-07T07:41:14;5.00;5.00;4.00
72854;PMS7003;60991;51.278;22.550;2022-12-07T07:44:24;8.25;6.25;4.25
72854;PMS7003;60991;51.278;22.550;2022-12-07T07:47:35;11.25;7.25;6.50
72854;PMS7003;60991;51.278;22.550;2022-12-07T07:54:06;10.75;9.50;7.00
72854;PMS7003;60991;51.278;22.550;2022-12-07T07:55:36;4.25;1.75;1.00
72854;PMS7003;60991;51.278;22.550;2022-12-07T07:57:06;8.00;7.00;5.00
72854;PMS7003;60991;51.278;22.550;2022-12-07T07:58:37;9.75;9.00;7.50
72854;PMS7003;60991;51.278;22.550;2022-12-07T08:00:08;12.75;10.00;7.00
72854;PMS7003;60991;51.278;22.550;2022-12-07T08:01:41;10.00;7.50;5.00
72854;PMS7003;60991;51.278;22.550;2022-12-07T08:03:14;10.50;6.50;5.00
72854;PMS7003;60991;51.278;22.550;2022-12-07T08:04:45;14.75;9.50;7.00
72854;PMS7003;60991;51.278;22.550;2022-12-07T08:06:15;15.00;9.00;7.50
72854;PMS7003;60991;51.278;22.550;2022-12-07T08:07:49;10.25;10.00;7.50
72854;PMS7003;60991;51.278;22.550;2022-12-07T08:19:23;11.25;11.25;7.50
72854;PMS7003;60991;51.278;22.550;2022-12-07T08:20:58;12.25;9.25;7.50
72854;PMS7003;60991;51.278;22.550;2022-12-07T08:22:29;7.25;7.00;5.00
72854;PMS7003;60991;51.278;22.550;2022-12-07T08:25:40;11.25;9.50;8.00
72854;PMS7003;60991;51.278;22.550;2022-12-07T08:27:11;8.50;8.50;7.50
72854;PMS7003;60991;51.278;22.550;2022-12-07T08:30:21;10.00;7.75;7.00
72854;PMS7003;60991;51.278;22.550;2022-12-07T08:31:52;9.00;8.00;7.00
72854;PMS7003;60991;51.278;22.550;2022-12-07T08:35:01;10.00;10.00;7.50
72854;PMS7003;60991;51.278;22.550;2022-12-07T08:36:32;8.75;7.00;5.00
72854;PMS7003;60991;51.278;22.550;2022-12-07T08:38:02;7.25;7.00;5.00
72854;PMS7003;60991;51.278;22.550;2022-12-07T08:41:11;12.25;11.25;8.00
72854;PMS7003;60991;51.278;22.550;2022-12-07T08:46:18;12.25;11.50;8.50
72854;PMS7003;60991;51.278;22.550;2022-12-07T08:48:04;14.50;10.00;7.00
72854;PMS7003;60991;51.278;22.550;2022-12-07T08:49:39;12.75;10.00;6.00
72854;PMS7003;60991;51.278;22.550;2022-12-07T08:51:13;18.25;10.75;8.50
72854;PMS7003;60991;51.278;22.550;2022-12-07T08:52:43;19.75;13.00;7.50
72854;PMS7003;60991;51.278;22.550;2022-12-07T09:02:34;16.75;14.00;10.00
72854;PMS7003;60991;51.278;22.550;2022-12-07T09:04:05;8.50;8.00;5.50
72854;PMS7003;60991;51.278;22.550;2022-12-07T09:05:36;12.75;11.50;9.00
72854;PMS7003;60991;51.278;22.550;2022-12-07T09:07:06;12.00;8.75;7.50
72854;PMS7003;60991;51.278;22.550;2022-12-07T09:08:38;10.00;10.00;6.50
72854;PMS7003;60991;51.278;22.550;2022-12-07T09:18:34;11.75;11.50;8.50
72854;PMS7003;60991;51.278;22.550;2022-12-07T09:20:05;16.00;14.00;10.00
72854;PMS7003;60991;51.278;22.550;2022-12-07T09:21:36;15.50;11.00;10.00
72854;PMS7003;60991;51.278;22.550;2022-12-07T09:24:47;13.50;10.50;9.00
72854;PMS7003;60991;51.278;22.550;2022-12-07T09:26:17;10.50;9.50;7.75
72854;PMS7003;60991;51.278;22.550;2022-12-07T09:27:57;14.50;11.00;7.75
72854;PMS7003;60991;51.278;22.550;2022-12-07T09:29:33;14.25;12.00;9.50
72854;PMS7003;60991;51.278;22.550;2022-12-07T09:37:47;10.75;7.00;6.00
72854;PMS7003;60991;51.278;22.550;2022-12-07T09:39:18;10.75;7.25;5.00
72854;PMS7003;60991;51.278;22.550;2022-12-07T09:42:37;9.00;7.50;4.75
72854;PMS7003;60991;51.278;22.550;2022-12-07T09:44:21;8.00;7.75;5.00
72854;PMS7003;60991;51.278;22.550;2022-12-07T09:45:54;7.00;6.50;5.00
72854;PMS7003;60991;51.278;22.550;2022-12-07T09:47:26;7.25;4.75;4.00
72854;PMS7003;60991;51.278;22.550;2022-12-07T09:49:00;9.50;9.50;7.75
72854;PMS7003;60991;51.278;22.550;2022-12-07T09:53:38;12.33;12.33;8.00
72854;PMS7003;60991;51.278;22.550;2022-12-07T09:55:15;10.25;10.25;8.00
72854;PMS7003;60991;51.278;22.550;2022-12-07T09:56:50;12.75;7.75;7.00
72854;PMS7003;60991;51.278;22.550;2022-12-07T09:58:21;12.75;9.00;8.00
72854;PMS7003;60991;51.278;22.550;2022-12-07T09:59:54;11.00;11.00;7.00
72854;PMS7003;60991;51.278;22.550;2022-12-07T10:01:30;7.75;7.75;6.50
72854;PMS7003;60991;51.278;22.550;2022-12-07T10:03:03;18.00;12.25;11.00
72854;PMS7003;60991;51.278;22.550;2022-12-07T10:04:38;11.00;10.00;9.00
72854;PMS7003;60991;51.278;22.550;2022-12-07T10:06:17;13.00;10.25;8.00
72854;PMS7003;60991;51.278;22.550;2022-12-07T10:07:47;12.25;10.75;8.00
72854;PMS7003;60991;51.278;22.550;2022-12-07T10:09:18;16.75;10.50;8.00
72854;PMS7003;60991;51.278;22.550;2022-12-07T10:10:51;16.00;10.25;7.50
72854;PMS7003;60991;51.278;22.550;2022-12-07T10:12:24;11.00;10.25;8.00
72854;PMS7003;60991;51.278;22.550;2022-12-07T10:13:55;17.50;14.25;9.00
72854;PMS7003;60991;51.278;22.550;2022-12-07T10:17:41;13.50;10.50;9.50
72854;PMS7003;60991;51.278;22.550;2022-12-07T10:19:25;17.00;10.75;8.75
72854;PMS7003;60991;51.278;22.550;2022-12-07T10:21:02;13.50;9.75;7.50
72854;PMS7003;60991;51.278;22.550;2022-12-07T10:22:38;9.00;9.00;7.25
72854;PMS7003;60991;51.278;22.550;2022-12-07T10:25:41;9.00;7.50;7.50
72854;PMS7003;60991;51.278;22.550;2022-12-07T10:28:48;8.50;8.00;7.75
72854;PMS7003;60991;51.278;22.550;2022-12-07T10:30:19;11.00;10.00;7.00
72854;PMS7003;60991;51.278;22.550;2022-12-07T10:31:59;9.50;6.00;4.75
72854;PMS7003;60991;51.278;22.550;2022-12-07T10:36:53;9.00;9.00;7.00